Time;durP1;ratioP1;P1;durP2;ratioP2;P2;SDS_P1;SDS_P2;PMS_P1;PMS_P2;Temp;Humidity;BMP_temperature;BMP_pressure;BME280_temperature;BME280_humidity;BME280_pressure;Samples;Min_cycle;Max_cycle;Signal;HPM_P1;HPM_P2
2022/10/07 00:00:49;;;;;;;0.10;0.10;;;;;;;;;;4843590;29;20045;-94
2022/10/07 00:03:16;;;;;;;0.10;0.10;;;;;;;;;;4828264;29;20128;-94
2022/10/07 00:05:44;;;;;;;0.10;0.10;;;;;;;;;;4831045;29;20516;-93
2022/10/07 00:08:10;;;;;;;0.10;0.10;;;;;;;;;;4831254;29;20045;-93
2022/10/07 00:10:36;;;;;;;0.10;0.10;;;;;;;;;;4830833;29;20042;-94
2022/10/07 00:13:03;;;;;;;0.10;0.10;;;;;;;;;;4831707;29;20466;-94
2022/10/07 00:15:33;;;;;;;0.10;0.10;;;;;;;;;;4845889;29;20057;-94
2022/10/07 00:18:05;;;;;;;0.10;0.10;;;;;;;;;;4831813;29;20104;-94
2022/10/07 00:20:36;;;;;;;0.10;0.10;;;;;;;;;;4831846;29;20076;-95
2022/10/07 00:23:02;;;;;;;0.10;0.10;;;;;;;;;;4831847;29;20128;-94
2022/10/07 00:25:30;;;;;;;0.10;0.10;;;;;;;;;;4831348;29;20084;-93
2022/10/07 00:27:56;;;;;;;0.10;0.10;;;;;;;;;;4831222;29;20053;-94
2022/10/07 00:30:22;;;;;;;0.10;0.10;;;;;;;;;;4830602;29;20060;-94
2022/10/07 00:32:48;;;;;;;0.10;0.10;;;;;;;;;;4831530;29;20046;-95
2022/10/07 00:35:16;;;;;;;0.15;0.15;;;;;;;;;;4831400;29;20507;-94
2022/10/07 00:37:42;;;;;;;0.10;0.10;;;;;;;;;;4831314;29;20446;-94
2022/10/07 00:40:12;;;;;;;0.10;0.10;;;;;;;;;;4830660;29;20048;-93
2022/10/07 00:42:39;;;;;;;0.10;0.10;;;;;;;;;;4831279;29;20046;-95
2022/10/07 00:45:06;;;;;;;0.10;0.10;;;;;;;;;;4831681;29;20050;-95
2022/10/07 00:47:36;;;;;;;0.10;0.10;;;;;;;;;;4832409;29;20200;-93
2022/10/07 00:50:21;;;;;;;0.10;0.10;;;;;;;;;;4831007;29;20049;-95
2022/10/07 00:52:51;;;;;;;0.10;0.10;;;;;;;;;;4831468;29;20493;-94
2022/10/07 00:55:18;;;;;;;0.10;0.10;;;;;;;;;;4831369;29;20057;-93
2022/10/07 00:57:44;;;;;;;0.10;0.10;;;;;;;;;;4830685;29;20157;-93
2022/10/07 01:00:11;;;;;;;0.10;0.10;;;;;;;;;;4830665;29;20085;-94
2022/10/07 01:02:38;;;;;;;0.50;0.50;;;;;;;;;;4830686;29;20052;-94
2022/10/07 01:05:05;;;;;;;0.10;0.10;;;;;;;;;;4830699;29;20045;-93
2022/10/07 01:07:31;;;;;;;0.10;0.10;;;;;;;;;;4830268;29;20041;-94
2022/10/07 01:09:58;;;;;;;0.10;0.10;;;;;;;;;;4830825;29;20052;-94
2022/10/07 01:12:43;;;;;;;0.10;0.10;;;;;;;;;;4830603;29;20065;-96
2022/10/07 01:15:09;;;;;;;0.10;0.10;;;;;;;;;;4845536;29;20057;-94
2022/10/07 01:17:38;;;;;;;0.10;0.10;;;;;;;;;;4845810;29;20466;-95
2022/10/07 01:20:11;;;;;;;0.10;0.10;;;;;;;;;;4845567;29;20053;-95
2022/10/07 01:22:49;;;;;;;0.10;0.10;;;;;;;;;;4834475;29;20037;-94
2022/10/07 01:25:48;;;;;;;0.10;0.10;;;;;;;;;;4845285;29;20050;-94
2022/10/07 01:28:34;;;;;;;0.10;0.10;;;;;;;;;;4825021;29;20054;-94
2022/10/07 01:31:01;;;;;;;0.10;0.10;;;;;;;;;;4860685;29;20084;-93
2022/10/07 01:33:28;;;;;;;0.10;0.10;;;;;;;;;;4830519;29;20048;-93
2022/10/07 01:35:58;;;;;;;0.10;0.10;;;;;;;;;;4847044;29;20064;-95
2022/10/07 01:38:34;;;;;;;0.10;0.10;;;;;;;;;;4855060;29;20060;-95
2022/10/07 01:41:14;;;;;;;0.30;0.30;;;;;;;;;;4858850;29;20120;-94
2022/10/07 01:43:41;;;;;;;0.40;0.40;;;;;;;;;;4862701;29;20366;-95
2022/10/07 01:46:08;;;;;;;0.10;0.10;;;;;;;;;;4847427;29;20041;-95
2022/10/07 01:48:37;;;;;;;0.10;0.10;;;;;;;;;;4831871;29;20050;-94
2022/10/07 01:51:06;;;;;;;0.10;0.10;;;;;;;;;;4833517;29;20121;-95
2022/10/07 01:53:48;;;;;;;0.10;0.10;;;;;;;;;;4835739;29;20124;-95
2022/10/07 01:56:33;;;;;;;0.10;0.10;;;;;;;;;;4844852;29;20064;-94
2022/10/07 01:59:14;;;;;;;0.10;0.10;;;;;;;;;;4845029;29;20045;-94
2022/10/07 02:01:53;;;;;;;0.10;0.10;;;;;;;;;;4844984;29;20041;-94
2022/10/07 02:04:22;;;;;;;0.10;0.10;;;;;;;;;;4829896;29;20041;-93
2022/10/07 02:06:58;;;;;;;3.53;2.58;;;;;;;;;;4844450;29;20498;-93
2022/10/07 02:09:33;;;;;;;0.10;0.10;;;;;;;;;;4829281;29;20053;-93
2022/10/07 02:15:18;;;;;;;0.10;0.10;;;;;;;;;;5311472;23;20298;-93
2022/10/07 02:17:52;;;;;;;0.10;0.10;;;;;;;;;;4904501;29;20044;-94
2022/10/07 02:20:47;;;;;;;;;;;;;;;;;;;;;
2022/10/07 02:23:35;;;;;;;0.10;0.10;;;;;;;;;;4917577;29;20043;-94
2022/10/07 02:26:02;;;;;;;0.10;0.10;;;;;;;;;;4871644;29;20044;-96
2022/10/07 02:28:28;;;;;;;0.10;0.10;;;;;;;;;;4904020;29;20127;-95
2022/10/07 02:31:01;;;;;;;0.10;0.10;;;;;;;;;;4891974;29;20127;-95
2022/10/07 02:33:28;;;;;;;0.10;0.10;;;;;;;;;;4870198;29;20052;-95
2022/10/07 02:36:29;;;;;;;0.10;0.10;;;;;;;;;;4870449;29;20102;-93
2022/10/07 02:39:03;;;;;;;0.10;0.10;;;;;;;;;;4908668;29;20055;-95
2022/10/07 02:41:46;;;;;;;0.20;0.20;;;;;;;;;;4908179;29;20127;-93
2022/10/07 02:44:24;;;;;;;0.10;0.10;;;;;;;;;;4914082;29;20095;-94
2022/10/07 02:47:07;;;;;;;0.10;0.10;;;;;;;;;;4906750;29;20115;-93
2022/10/07 02:52:12;;;;;;;0.10;0.10;;;;;;;;;;5616716;23;20330;-93
2022/10/07 02:54:43;;;;;;;0.10;0.10;;;;;;;;;;4866086;29;20044;-93
2022/10/07 02:57:10;;;;;;;0.10;0.10;;;;;;;;;;4866068;29;20049;-93
2022/10/07 02:59:36;;;;;;;0.10;0.10;;;;;;;;;;4866051;29;20131;-93
2022/10/07 03:02:03;;;;;;;0.50;0.50;;;;;;;;;;4865782;29;20056;-94
2022/10/07 03:04:29;;;;;;;0.90;0.25;;;;;;;;;;4866360;29;20044;-93
2022/10/07 03:06:57;;;;;;;0.10;0.10;;;;;;;;;;4865912;29;20088;-94
2022/10/07 03:09:23;;;;;;;0.10;0.10;;;;;;;;;;4865754;29;20131;-94
2022/10/07 03:11:51;;;;;;;0.10;0.10;;;;;;;;;;4865396;29;20188;-94
2022/10/07 03:14:17;;;;;;;0.10;0.10;;;;;;;;;;4865896;29;20044;-92
2022/10/07 03:16:45;;;;;;;0.10;0.10;;;;;;;;;;4865723;29;20131;-93
2022/10/07 03:19:11;;;;;;;0.10;0.10;;;;;;;;;;4865692;29;20145;-93
2022/10/07 03:21:40;;;;;;;0.10;0.10;;;;;;;;;;4865499;29;20136;-92
2022/10/07 03:24:06;;;;;;;0.10;0.10;;;;;;;;;;4865665;29;20140;-92
2022/10/07 03:26:32;;;;;;;0.10;0.10;;;;;;;;;;4866078;29;20047;-92
2022/10/07 03:28:59;;;;;;;0.10;0.10;;;;;;;;;;4867084;29;20109;-93
2022/10/07 03:31:26;;;;;;;0.10;0.10;;;;;;;;;;4881726;29;20049;-93
2022/10/07 03:33:54;;;;;;;0.10;0.10;;;;;;;;;;4865881;29;20075;-92
2022/10/07 03:36:20;;;;;;;0.10;0.10;;;;;;;;;;4881193;29;20052;-92
2022/10/07 03:38:46;;;;;;;0.10;0.10;;;;;;;;;;4867198;29;20050;-94
2022/10/07 03:41:12;;;;;;;0.10;0.10;;;;;;;;;;4868917;29;20036;-93
2022/10/07 03:43:38;;;;;;;0.10;0.10;;;;;;;;;;4869199;29;20064;-93
2022/10/07 03:46:04;;;;;;;0.10;0.10;;;;;;;;;;4868659;29;20048;-93
2022/10/07 03:48:30;;;;;;;0.10;0.10;;;;;;;;;;4868911;29;20056;-93
2022/10/07 03:50:59;;;;;;;0.10;0.10;;;;;;;;;;4869014;29;20072;-93
2022/10/07 03:53:25;;;;;;;0.10;0.10;;;;;;;;;;4869062;29;20075;-93
2022/10/07 03:55:51;;;;;;;0.10;0.10;;;;;;;;;;4868948;29;20067;-93
2022/10/07 03:58:18;;;;;;;0.20;0.20;;;;;;;;;;4868551;29;20044;-92
2022/10/07 04:00:44;;;;;;;0.10;0.10;;;;;;;;;;4869058;29;20040;-93
2022/10/07 04:03:10;;;;;;;0.10;0.10;;;;;;;;;;4868501;29;20079;-93
2022/10/07 04:05:36;;;;;;;0.10;0.10;;;;;;;;;;4899205;29;20047;-94
2022/10/07 04:08:06;;;;;;;0.10;0.10;;;;;;;;;;4884279;29;20040;-93
2022/10/07 04:10:33;;;;;;;0.10;0.10;;;;;;;;;;4869076;29;20072;-93
2022/10/07 04:12:59;;;;;;;0.10;0.10;;;;;;;;;;4870591;29;20043;-95
2022/10/07 04:15:25;;;;;;;0.10;0.10;;;;;;;;;;4870412;29;20597;-94
2022/10/07 04:17:54;;;;;;;0.10;0.10;;;;;;;;;;4869577;29;20460;-95
2022/10/07 04:20:20;;;;;;;0.10;0.10;;;;;;;;;;4873289;29;20480;-94
2022/10/07 04:22:46;;;;;;;0.10;0.10;;;;;;;;;;4874192;29;20127;-94
2022/10/07 04:28:07;;;;;;;0.10;0.10;;;;;;;;;;4888308;29;20247;-94
2022/10/07 04:30:37;;;;;;;0.10;0.10;;;;;;;;;;4870490;29;20048;-94
2022/10/07 04:33:04;;;;;;;0.10;0.10;;;;;;;;;;4870229;29;20052;-94
2022/10/07 04:35:33;;;;;;;0.10;0.10;;;;;;;;;;4869759;29;20052;-94
2022/10/07 04:38:06;;;;;;;0.10;0.10;;;;;;;;;;4886187;29;20076;-94
2022/10/07 04:40:32;;;;;;;0.10;0.10;;;;;;;;;;4869708;29;20041;-92
2022/10/07 04:45:44;;;;;;;0.10;0.10;;;;;;;;;;4900050;29;20056;-94
2022/10/07 04:48:15;;;;;;;0.10;0.10;;;;;;;;;;4868534;29;20048;-95
2022/10/07 04:50:42;;;;;;;0.10;0.10;;;;;;;;;;4868369;29;20127;-94
2022/10/07 04:53:09;;;;;;;0.10;0.10;;;;;;;;;;4871017;29;20061;-94
2022/10/07 04:55:42;;;;;;;0.20;0.20;;;;;;;;;;4887128;29;20120;-95
2022/10/07 04:58:08;;;;;;;0.10;0.10;;;;;;;;;;4886302;29;20377;-94
2022/10/07 05:00:34;;;;;;;0.10;0.10;;;;;;;;;;4870595;29;20041;-94
2022/10/07 05:03:04;;;;;;;0.10;0.10;;;;;;;;;;4887787;29;20040;-94
2022/10/07 05:05:34;;;;;;;0.15;0.15;;;;;;;;;;4884312;29;20083;-94
2022/10/07 05:08:00;;;;;;;0.10;0.10;;;;;;;;;;4883257;29;20045;-92
2022/10/07 05:10:26;;;;;;;0.10;0.10;;;;;;;;;;4867616;29;20044;-92
2022/10/07 05:12:53;;;;;;;0.90;0.75;;;;;;;;;;4882753;29;20048;-92
2022/10/07 05:15:19;;;;;;;0.10;0.10;;;;;;;;;;4867435;29;20075;-92
2022/10/07 05:17:45;;;;;;;0.10;0.10;;;;;;;;;;4866890;29;20128;-92
2022/10/07 05:20:11;;;;;;;0.13;0.13;;;;;;;;;;4866895;29;20060;-92
2022/10/07 05:22:37;;;;;;;0.45;0.45;;;;;;;;;;4867251;29;20108;-92
2022/10/07 05:25:03;;;;;;;0.10;0.10;;;;;;;;;;4867278;29;20480;-92
2022/10/07 05:27:31;;;;;;;0.10;0.10;;;;;;;;;;4867556;29;20049;-92
2022/10/07 05:29:57;;;;;;;0.10;0.10;;;;;;;;;;4867015;29;20048;-93
2022/10/07 05:32:24;;;;;;;0.28;0.28;;;;;;;;;;4867013;29;20055;-92
2022/10/07 05:34:51;;;;;;;0.10;0.10;;;;;;;;;;4867386;29;20091;-92
2022/10/07 05:37:20;;;;;;;0.17;0.17;;;;;;;;;;4868226;29;20044;-93
2022/10/07 05:39:46;;;;;;;0.15;0.15;;;;;;;;;;4866885;29;20104;-93
2022/10/07 05:42:12;;;;;;;0.10;0.10;;;;;;;;;;4867323;29;20044;-92
2022/10/07 05:44:38;;;;;;;0.10;0.10;;;;;;;;;;4867250;29;20462;-92
2022/10/07 05:47:06;;;;;;;0.20;0.20;;;;;;;;;;4866848;29;20040;-92
2022/10/07 05:49:34;;;;;;;0.10;0.10;;;;;;;;;;4867529;29;20055;-92
2022/10/07 05:52:01;;;;;;;0.10;0.10;;;;;;;;;;4866859;29;20064;-95
2022/10/07 05:54:27;;;;;;;0.10;0.10;;;;;;;;;;4882451;29;20514;-93
2022/10/07 05:56:53;;;;;;;0.10;0.10;;;;;;;;;;4867036;29;20045;-94
2022/10/07 05:59:20;;;;;;;0.10;0.10;;;;;;;;;;4866704;29;20051;-93
2022/10/07 06:01:46;;;;;;;0.10;0.10;;;;;;;;;;4866140;29;20369;-94
2022/10/07 06:04:13;;;;;;;0.10;0.10;;;;;;;;;;4867051;29;20048;-94
2022/10/07 06:06:42;;;;;;;0.10;0.10;;;;;;;;;;4866977;29;20045;-94
2022/10/07 06:14:38;;;;;;;0.10;0.10;;;;;;;;;;4886128;29;20381;-93
2022/10/07 06:17:04;;;;;;;0.10;0.10;;;;;;;;;;4869466;29;20047;-92
2022/10/07 06:19:35;;;;;;;0.10;0.10;;;;;;;;;;4867786;29;20048;-96
2022/10/07 06:22:01;;;;;;;0.10;0.10;;;;;;;;;;4866396;29;20045;-93
2022/10/07 06:24:38;;;;;;;0.10;0.10;;;;;;;;;;4870326;29;20049;-95
2022/10/07 06:27:06;;;;;;;0.20;0.20;;;;;;;;;;4874773;29;20048;-94
2022/10/07 06:29:35;;;;;;;0.10;0.10;;;;;;;;;;4883080;29;20055;-93
2022/10/07 06:32:10;;;;;;;0.10;0.10;;;;;;;;;;4867209;29;20433;-95
2022/10/07 06:34:43;;;;;;;0.10;0.10;;;;;;;;;;4871622;29;20048;-96
2022/10/07 06:37:09;;;;;;;0.10;0.10;;;;;;;;;;4885954;29;20109;-94
2022/10/07 06:40:02;;;;;;;0.10;0.10;;;;;;;;;;4884443;29;20040;-93
2022/10/07 06:53:07;;;;;;;0.10;0.10;;;;;;;;;;5067008;23;20071;-93
2022/10/07 07:01:30;;;;;;;0.10;0.10;;;;;;;;;;5303557;23;20075;-95
2022/10/07 07:05:06;;;;;;;0.10;0.10;;;;;;;;;;4908269;29;20075;-94
2022/10/07 07:07:24;;;;;;;0.10;0.10;;;;;;;;;;4933944;29;20079;-94
2022/10/07 07:09:52;;;;;;;0.10;0.10;;;;;;;;;;4890760;29;20052;-95
2022/10/07 07:12:24;;;;;;;0.10;0.10;;;;;;;;;;4894095;29;20044;-95
2022/10/07 07:14:59;;;;;;;0.10;0.10;;;;;;;;;;4900859;29;20514;-96
2022/10/07 07:17:45;;;;;;;0.10;0.10;;;;;;;;;;4930557;29;20043;-95
2022/10/07 07:21:00;;;;;;;0.10;0.10;;;;;;;;;;4897363;29;20052;-96
2022/10/07 07:27:13;;;;;;;0.10;0.10;;;;;;;;;;4943346;29;20074;-95
2022/10/07 07:29:42;;;;;;;0.10;0.10;;;;;;;;;;4909140;29;20043;-92
2022/10/07 07:32:08;;;;;;;0.10;0.10;;;;;;;;;;4890769;29;20039;-92
2022/10/07 07:34:36;;;;;;;0.10;0.10;;;;;;;;;;4890527;29;20039;-94
2022/10/07 07:37:06;;;;;;;0.10;0.10;;;;;;;;;;4896772;29;20098;-94
2022/10/07 07:39:32;;;;;;;0.10;0.10;;;;;;;;;;4907553;29;20078;-95
2022/10/07 07:42:20;;;;;;;0.10;0.10;;;;;;;;;;4896035;29;20036;-94
2022/10/07 07:44:46;;;;;;;0.10;0.10;;;;;;;;;;4892537;29;20138;-93
2022/10/07 07:47:41;;;;;;;0.10;0.10;;;;;;;;;;4894080;29;20044;-95
2022/10/07 07:50:10;;;;;;;0.10;0.10;;;;;;;;;;4921385;29;20051;-95
2022/10/07 07:52:40;;;;;;;0.10;0.10;;;;;;;;;;4895291;29;20070;-95
2022/10/07 07:55:09;;;;;;;0.10;0.10;;;;;;;;;;4908404;29;20055;-96
2022/10/07 07:57:38;;;;;;;0.10;0.10;;;;;;;;;;4893192;29;20153;-95
2022/10/07 08:00:07;;;;;;;0.15;0.15;;;;;;;;;;4890226;29;20047;-95
2022/10/07 08:02:36;;;;;;;0.10;0.10;;;;;;;;;;4888369;29;20052;-95
2022/10/07 08:05:06;;;;;;;0.60;0.60;;;;;;;;;;4898277;29;20059;-95
2022/10/07 08:07:37;;;;;;;0.10;0.10;;;;;;;;;;4882168;29;20044;-95
2022/10/07 08:10:04;;;;;;;0.10;0.10;;;;;;;;;;4889887;29;20080;-96
2022/10/07 08:12:38;;;;;;;0.20;0.20;;;;;;;;;;4876370;29;20044;-96
2022/10/07 08:18:46;;;;;;;0.10;0.10;;;;;;;;;;4923545;29;20050;-95
2022/10/07 08:23:59;;;;;;;0.10;0.10;;;;;;;;;;5057420;23;20056;-95
2022/10/07 08:26:25;;;;;;;0.10;0.10;;;;;;;;;;4890592;29;20079;-94
2022/10/07 08:29:15;;;;;;;0.10;0.10;;;;;;;;;;4884635;29;20078;-94
2022/10/07 08:31:56;;;;;;;0.20;0.20;;;;;;;;;;4835792;29;20061;-94
2022/10/07 08:34:25;;;;;;;0.10;0.10;;;;;;;;;;4846405;29;20079;-95
2022/10/07 08:36:51;;;;;;;0.10;0.10;;;;;;;;;;4830917;29;20049;-96
2022/10/07 08:39:17;;;;;;;0.10;0.10;;;;;;;;;;4830352;29;20053;-95
2022/10/07 08:42:20;;;;;;;0.10;0.10;;;;;;;;;;4836501;29;20084;-96
2022/10/07 08:48:06;;;;;;;0.10;0.10;;;;;;;;;;4851666;29;20049;-96
2022/10/07 08:50:50;;;;;;;0.13;0.13;;;;;;;;;;4842184;29;20048;-96
2022/10/07 08:53:23;;;;;;;0.10;0.10;;;;;;;;;;4861900;29;20234;-95
2022/10/07 08:55:55;;;;;;;0.15;0.15;;;;;;;;;;4862218;29;20229;-94
2022/10/07 08:58:34;;;;;;;0.10;0.10;;;;;;;;;;4836778;29;20054;-95
2022/10/07 09:01:21;;;;;;;1.73;0.20;;;;;;;;;;5051092;23;20059;-93
2022/10/07 09:05:06;;;;;;;0.10;0.10;;;;;;;;;;4886276;29;20131;-94
2022/10/07 09:07:13;;;;;;;2.30;0.20;;;;;;;;;;4877022;29;20064;-93
2022/10/07 09:12:59;;;;;;;0.10;0.10;;;;;;;;;;4918950;29;20052;-95
2022/10/07 09:15:46;;;;;;;0.22;0.22;;;;;;;;;;4885748;29;20056;-96
2022/10/07 09:18:15;;;;;;;0.10;0.10;;;;;;;;;;4886546;29;20040;-95
2022/10/07 09:20:45;;;;;;;0.20;0.20;;;;;;;;;;4901550;29;20048;-94
2022/10/07 09:23:16;;;;;;;0.10;0.10;;;;;;;;;;4917749;29;20044;-94
2022/10/07 09:25:43;;;;;;;0.28;0.28;;;;;;;;;;4885711;29;20044;-93
2022/10/07 09:28:12;;;;;;;2.28;0.28;;;;;;;;;;4901221;29;20076;-94
2022/10/07 09:30:38;;;;;;;0.10;0.10;;;;;;;;;;4887820;29;20535;-94
2022/10/07 09:51:25;;;;;;;0.20;0.20;;;;;;;;;;5216106;23;20532;-95
2022/10/07 09:54:02;;;;;;;0.20;0.20;;;;;;;;;;4882688;29;20052;-95
2022/10/07 09:59:50;;;;;;;;;;;;;;;;;;4905340;29;20052;-96
2022/10/07 10:13:13;;;;;;;0.10;0.10;;;;;;;;;;5137523;23;20107;-95
2022/10/07 10:19:14;;;;;;;0.10;0.10;;;;;;;;;;4931042;29;20047;-96
2022/10/07 10:21:50;;;;;;;0.10;0.10;;;;;;;;;;4828062;29;20117;-96
2022/10/07 11:44:38;;;;;;;0.10;0.10;;;;;;;;;;6291291;22;1235211;-94
2022/10/07 12:07:47;;;;;;;0.10;0.10;;;;;;;;;;6257640;22;20032;-96
2022/10/07 12:10:20;;;;;;;0.15;0.15;;;;;;;;;;6215604;23;20042;-96
2022/10/07 12:13:00;;;;;;;0.10;0.10;;;;;;;;;;6227653;23;20009;-96
2022/10/07 12:16:08;;;;;;;0.10;0.10;;;;;;;;;;6202849;23;20039;-96
2022/10/07 12:18:36;;;;;;;0.20;0.20;;;;;;;;;;6168548;23;20099;-95
2022/10/07 12:21:02;;;;;;;0.10;0.10;;;;;;;;;;6174502;23;20016;-96
2022/10/07 12:23:34;;;;;;;0.17;0.17;;;;;;;;;;6200740;23;20012;-96
2022/10/07 12:26:09;;;;;;;0.10;0.10;;;;;;;;;;6200009;23;20442;-96
2022/10/07 12:28:54;;;;;;;0.32;0.32;;;;;;;;;;6203089;23;20017;-95
2022/10/07 12:43:59;;;;;;;0.10;0.10;;;;;;;;;;6248821;22;20057;-94
2022/10/07 12:46:29;;;;;;;0.10;0.10;;;;;;;;;;6247706;23;20017;-93
2022/10/07 12:49:02;;;;;;;2.17;0.35;;;;;;;;;;6195522;23;20074;-94
2022/10/07 12:51:29;;;;;;;0.10;0.10;;;;;;;;;;6190142;23;20019;-95
2022/10/07 12:53:57;;;;;;;0.10;0.10;;;;;;;;;;6190552;23;20009;-94
2022/10/07 12:56:57;;;;;;;;;;;;;;;;;;;;;
2022/10/07 12:59:46;;;;;;;0.10;0.10;;;;;;;;;;6226000;23;20520;-96
2022/10/07 13:02:49;;;;;;;0.57;0.57;;;;;;;;;;6220021;23;20019;-96
2022/10/07 13:05:51;;;;;;;0.10;0.10;;;;;;;;;;6230098;23;20083;-95
2022/10/07 13:09:20;;;;;;;;;;;;;;;;;;;;;
2022/10/07 13:12:43;;;;;;;0.10;0.10;;;;;;;;;;6204885;23;20021;-96
2022/10/07 13:15:31;;;;;;;0.10;0.10;;;;;;;;;;6232324;23;20072;-96
2022/10/07 13:25:14;;;;;;;0.10;0.10;;;;;;;;;;6220179;23;20055;-95
2022/10/07 13:27:40;;;;;;;0.10;0.10;;;;;;;;;;6220513;23;20017;-94
2022/10/07 13:52:39;;;;;;;0.10;0.10;;;;;;;;;;6217212;23;19916;-94
2022/10/07 13:55:24;;;;;;;0.10;0.10;;;;;;;;;;6163981;23;20036;-94
2022/10/07 13:57:51;;;;;;;0.10;0.10;;;;;;;;;;6214068;23;20090;-93
2022/10/07 14:00:17;;;;;;;0.10;0.10;;;;;;;;;;6162874;23;20017;-93
2022/10/07 14:02:43;;;;;;;0.10;0.10;;;;;;;;;;6163980;23;20017;-94
2022/10/07 14:05:28;;;;;;;0.10;0.10;;;;;;;;;;6163921;23;20012;-93
2022/10/07 14:08:00;;;;;;;0.20;0.20;;;;;;;;;;6165833;23;20346;-94
2022/10/07 14:10:26;;;;;;;0.10;0.10;;;;;;;;;;6164539;23;20457;-93
2022/10/07 14:12:59;;;;;;;0.10;0.10;;;;;;;;;;6163893;23;20012;-94
2022/10/07 14:15:26;;;;;;;0.10;0.10;;;;;;;;;;6164368;23;20334;-94
2022/10/07 14:18:06;;;;;;;0.10;0.10;;;;;;;;;;6163920;23;20371;-94
2022/10/07 14:20:32;;;;;;;0.10;0.10;;;;;;;;;;6163915;23;20075;-94
2022/10/07 14:23:02;;;;;;;0.10;0.10;;;;;;;;;;6188760;23;20016;-94
2022/10/07 14:25:29;;;;;;;0.10;0.10;;;;;;;;;;6188116;23;20020;-94
2022/10/07 14:27:58;;;;;;;0.10;0.10;;;;;;;;;;6163597;23;20016;-94
2022/10/07 14:43:27;;;;;;;0.10;0.10;;;;;;;;;;6246825;22;20035;-95
2022/10/07 14:45:58;;;;;;;0.10;0.10;;;;;;;;;;6194101;23;20016;-94
2022/10/07 14:48:24;;;;;;;0.10;0.10;;;;;;;;;;6196979;23;20404;-96
2022/10/07 14:50:55;;;;;;;0.10;0.10;;;;;;;;;;6192966;23;20020;-96
2022/10/07 14:56:13;;;;;;;0.10;0.10;;;;;;;;;;6250627;22;20027;-96
2022/10/07 14:58:41;;;;;;;0.15;0.15;;;;;;;;;;6202819;23;20063;-96
2022/10/07 15:01:39;;;;;;;0.10;0.10;;;;;;;;;;6225778;23;20050;-96
2022/10/07 15:05:26;;;;;;;;;;;;;;;;;;;;;
2022/10/07 15:08:02;;;;;;;0.10;0.10;;;;;;;;;;6242383;23;20012;-96
2022/10/07 15:10:32;;;;;;;0.10;0.10;;;;;;;;;;6197435;22;20016;-96
2022/10/07 15:13:02;;;;;;;0.10;0.10;;;;;;;;;;6197719;23;20015;-96
2022/10/07 15:15:28;;;;;;;0.10;0.10;;;;;;;;;;6195476;23;20458;-96
2022/10/07 15:17:57;;;;;;;0.10;0.10;;;;;;;;;;6195153;23;20012;-96
2022/10/07 15:35:59;;;;;;;0.10;0.10;;;;;;;;;;6245230;22;19916;-93
2022/10/07 15:38:28;;;;;;;0.20;0.20;;;;;;;;;;6195806;23;20019;-96
2022/10/07 15:41:02;;;;;;;0.10;0.10;;;;;;;;;;6197950;23;20009;-96
2022/10/07 15:44:16;;;;;;;0.10;0.10;;;;;;;;;;6224672;23;20040;-94
2022/10/07 15:46:42;;;;;;;0.10;0.10;;;;;;;;;;6216328;23;20008;-93
2022/10/07 15:49:23;;;;;;;0.10;0.10;;;;;;;;;;6215716;23;20021;-96
2022/10/07 15:51:50;;;;;;;0.10;0.10;;;;;;;;;;6241093;23;20009;-95
2022/10/07 15:54:21;;;;;;;0.10;0.10;;;;;;;;;;6215561;23;20072;-93
2022/10/07 15:57:10;;;;;;;;;;;;;;;;;;;;;
2022/10/07 15:59:39;;;;;;;0.10;0.10;;;;;;;;;;6236261;23;20024;-93
2022/10/07 16:02:23;;;;;;;0.10;0.10;;;;;;;;;;6225939;23;20438;-94
2022/10/07 16:07:25;;;;;;;0.10;0.10;;;;;;;;;;6242946;22;20047;-92
2022/10/07 16:09:51;;;;;;;0.10;0.10;;;;;;;;;;6192808;23;20016;-92
2022/10/07 16:12:17;;;;;;;0.10;0.10;;;;;;;;;;6187644;23;20088;-92
2022/10/07 16:14:43;;;;;;;0.10;0.10;;;;;;;;;;6187400;23;20013;-92
2022/10/07 16:17:09;;;;;;;0.10;0.10;;;;;;;;;;6189081;23;20012;-93
2022/10/07 16:19:35;;;;;;;0.10;0.10;;;;;;;;;;6190075;23;20072;-89
2022/10/07 16:22:01;;;;;;;0.10;0.10;;;;;;;;;;6189013;23;20017;-89
2022/10/07 16:24:27;;;;;;;0.10;0.10;;;;;;;;;;6189419;23;20061;-93
2022/10/07 16:26:55;;;;;;;0.10;0.10;;;;;;;;;;6189657;23;20347;-93
2022/10/07 16:32:10;;;;;;;0.10;0.10;;;;;;;;;;6193077;23;20017;-92
2022/10/07 16:34:37;;;;;;;0.20;0.20;;;;;;;;;;6189686;23;20012;-92
2022/10/07 16:37:03;;;;;;;0.10;0.10;;;;;;;;;;6189569;23;20063;-92
2022/10/07 16:39:31;;;;;;;0.10;0.10;;;;;;;;;;6189034;23;20067;-93
2022/10/07 16:41:58;;;;;;;0.10;0.10;;;;;;;;;;6189248;23;20146;-93
2022/10/07 16:44:24;;;;;;;0.10;0.10;;;;;;;;;;6189024;23;20019;-93
2022/10/07 16:46:55;;;;;;;0.10;0.10;;;;;;;;;;6189513;23;20110;-92
2022/10/07 16:49:24;;;;;;;0.10;0.10;;;;;;;;;;6190149;23;20024;-93
2022/10/07 16:51:53;;;;;;;0.10;0.10;;;;;;;;;;6195048;23;20017;-92
2022/10/07 16:54:20;;;;;;;0.10;0.10;;;;;;;;;;6191349;23;20446;-93
2022/10/07 16:56:49;;;;;;;0.10;0.10;;;;;;;;;;6213702;23;20083;-92
2022/10/07 16:59:19;;;;;;;0.10;0.10;;;;;;;;;;6189423;23;20092;-92
2022/10/07 17:01:45;;;;;;;0.10;0.10;;;;;;;;;;6187682;23;20094;-91
2022/10/07 17:04:11;;;;;;;0.10;0.10;;;;;;;;;;6188769;23;20012;-91
2022/10/07 17:06:37;;;;;;;0.10;0.10;;;;;;;;;;6188667;23;20021;-89
2022/10/07 17:09:03;;;;;;;0.10;0.10;;;;;;;;;;6188752;23;20024;-89
2022/10/07 17:11:30;;;;;;;0.10;0.10;;;;;;;;;;6188692;23;20207;-91
2022/10/07 17:13:56;;;;;;;0.10;0.10;;;;;;;;;;6188755;23;20020;-89
2022/10/07 17:16:23;;;;;;;0.10;0.10;;;;;;;;;;6188493;23;20044;-90
2022/10/07 17:18:49;;;;;;;0.10;0.10;;;;;;;;;;6188792;23;20013;-91
2022/10/07 17:21:15;;;;;;;0.43;0.40;;;;;;;;;;6188579;23;20009;-90
2022/10/07 17:23:41;;;;;;;0.10;0.10;;;;;;;;;;6189038;23;20070;-89
2022/10/07 17:26:07;;;;;;;0.10;0.10;;;;;;;;;;6188868;23;20458;-91
2022/10/07 17:28:36;;;;;;;0.10;0.10;;;;;;;;;;6188512;23;20021;-91
2022/10/07 17:31:20;;;;;;;0.15;0.15;;;;;;;;;;6188079;23;20017;-89
2022/10/07 17:33:46;;;;;;;0.10;0.10;;;;;;;;;;6188389;23;20013;-91
2022/10/07 17:36:13;;;;;;;0.10;0.10;;;;;;;;;;6213368;23;20019;-90
2022/10/07 17:38:42;;;;;;;0.10;0.10;;;;;;;;;;6188733;23;20013;-93
2022/10/07 17:41:24;;;;;;;0.10;0.10;;;;;;;;;;6188759;23;20008;-91
2022/10/07 17:43:52;;;;;;;0.10;0.10;;;;;;;;;;6189346;23;20019;-92
2022/10/07 17:46:27;;;;;;;0.10;0.10;;;;;;;;;;6189448;23;20458;-95
2022/10/07 17:48:55;;;;;;;0.10;0.10;;;;;;;;;;6214203;23;20020;-96
2022/10/07 17:51:29;;;;;;;0.10;0.10;;;;;;;;;;6189971;23;20345;-96
2022/10/07 17:54:08;;;;;;;0.10;0.10;;;;;;;;;;6193393;23;20009;-96
2022/10/07 17:56:37;;;;;;;0.10;0.10;;;;;;;;;;6224436;23;20059;-95
2022/10/07 17:59:23;;;;;;;0.10;0.10;;;;;;;;;;6202013;23;20068;-96
2022/10/07 18:01:53;;;;;;;0.10;0.10;;;;;;;;;;6191564;23;20062;-93
2022/10/07 18:04:19;;;;;;;0.10;0.10;;;;;;;;;;6188550;23;20013;-92
2022/10/07 18:06:49;;;;;;;0.10;0.10;;;;;;;;;;6187289;23;20082;-93
2022/10/07 18:09:28;;;;;;;;;;;;;;;;;;;;;
2022/10/07 18:17:34;;;;;;;0.10;0.10;;;;;;;;;;6215034;23;20369;-96
2022/10/07 18:41:32;;;;;;;0.10;0.10;;;;;;;;;;6230372;22;20027;-95
2022/10/07 18:43:58;;;;;;;0.10;0.10;;;;;;;;;;6194265;23;20030;-91
2022/10/07 18:46:49;;;;;;;0.10;0.10;;;;;;;;;;6194273;23;20012;-94
2022/10/07 18:49:18;;;;;;;0.10;0.10;;;;;;;;;;6243863;23;20103;-95
2022/10/07 18:51:49;;;;;;;0.10;0.10;;;;;;;;;;6189863;23;20012;-93
2022/10/07 18:54:15;;;;;;;0.10;0.10;;;;;;;;;;6165362;23;20017;-96
2022/10/07 18:56:44;;;;;;;0.10;0.10;;;;;;;;;;6165526;23;20074;-96
2022/10/07 18:59:13;;;;;;;0.10;0.10;;;;;;;;;;6166074;23;20066;-92
2022/10/07 19:05:30;;;;;;;0.20;0.20;;;;;;;;;;6216337;23;20015;-96
2022/10/07 19:08:01;;;;;;;0.10;0.10;;;;;;;;;;6188926;23;20016;-96
2022/10/07 19:10:32;;;;;;;0.10;0.10;;;;;;;;;;6164506;23;20020;-96
2022/10/07 19:19:33;;;;;;;0.10;0.10;;;;;;;;;;6222759;23;20068;-96
2022/10/07 19:21:58;;;;;;;0.10;0.10;;;;;;;;;;6187298;23;20414;-90
2022/10/07 19:27:47;;;;;;;0.10;0.10;;;;;;;;;;6221092;23;20062;-92
2022/10/07 20:07:25;;;;;;;0.10;0.10;;;;;;;;;;6239064;22;20369;-93
2022/10/07 20:09:51;;;;;;;0.10;0.10;;;;;;;;;;6225401;23;20019;-94
2022/10/07 20:12:17;;;;;;;0.10;0.10;;;;;;;;;;6191618;23;20013;-95
2022/10/07 20:14:45;;;;;;;0.10;0.10;;;;;;;;;;6190098;23;20345;-94
2022/10/07 20:17:11;;;;;;;0.10;0.10;;;;;;;;;;6190197;23;20013;-91
2022/10/07 20:19:46;;;;;;;0.10;0.10;;;;;;;;;;6189423;23;20016;-92
2022/10/07 20:22:12;;;;;;;0.10;0.10;;;;;;;;;;6214841;23;20400;-93
2022/10/07 20:24:38;;;;;;;0.10;0.10;;;;;;;;;;6191221;23;20016;-94
2022/10/07 20:27:13;;;;;;;0.10;0.10;;;;;;;;;;6190412;23;20042;-94
2022/10/07 20:29:55;;;;;;;0.10;0.10;;;;;;;;;;6215111;23;20048;-95
2022/10/07 20:32:25;;;;;;;0.10;0.10;;;;;;;;;;6193718;23;20016;-94
2022/10/07 20:34:51;;;;;;;0.10;0.10;;;;;;;;;;6190371;23;20496;-95
2022/10/07 20:37:17;;;;;;;0.10;0.10;;;;;;;;;;6190818;23;20437;-95
2022/10/07 20:42:28;;;;;;;0.47;0.47;;;;;;;;;;6193735;23;20039;-93
2022/10/07 20:44:55;;;;;;;0.10;0.10;;;;;;;;;;6190753;23;20012;-94
2022/10/07 20:47:21;;;;;;;0.10;0.10;;;;;;;;;;6190275;23;20103;-94
2022/10/07 20:49:49;;;;;;;0.17;0.17;;;;;;;;;;6189898;23;20012;-95
2022/10/07 20:52:16;;;;;;;0.28;0.28;;;;;;;;;;6192804;23;20074;-95
2022/10/07 20:54:42;;;;;;;0.10;0.10;;;;;;;;;;6194230;23;20012;-95
2022/10/07 20:57:10;;;;;;;0.10;0.10;;;;;;;;;;6193261;23;20044;-95
2022/10/07 20:59:36;;;;;;;0.10;0.10;;;;;;;;;;6190263;23;20017;-94
2022/10/07 21:02:05;;;;;;;0.10;0.10;;;;;;;;;;6189736;23;20054;-94